Capt Al Devall — WCW9164 — position and weather

sailwx.info

Track history (hours):
 
Tides and Currents Weather Stations Pressure Air Temp Water Temp Dewpoint Dewpoint Depression Visibility Wind Speed Wind Dir Waves Ship Positions

Capt Al Devall

Owner: J & J DEVALL MARITIME MARINE OPERATORS, Sulphur, LA. More information available from US FCC via Universal Licensing System and Coast Guard Vessel Documentation Center.

Last reported at 2018-Feb-19 05:30 UTC. Time now 2018-Feb-19 05:58 UTC.
Position N 29°45' W 094°04'.

; draft 3 m.

Type: Towing. MMSI: 366972270.

Date/timePositionNaut miles runAvg speedWind from/ knotsBaromVisibWave heightAir tempDewpointWater temp
2018-Feb-19 05:30N 29°45' W 094°04'0 0.0
2018-Feb-19 05:00N 29°45' W 094°04'0 0.0
2018-Feb-19 04:30N 29°45' W 094°04'0 0.0
2018-Feb-19 04:00N 29°45' W 094°04'0 0.0
2018-Feb-19 03:30N 29°45' W 094°04'0 0.0
2018-Feb-19 03:00N 29°45' W 094°04'0 0.0
2018-Feb-19 02:30N 29°45' W 094°04'0 0.0
2018-Feb-19 02:00N 29°45' W 094°04'0 0.0
2018-Feb-19 01:30N 29°45' W 094°04'0 0.0
2018-Feb-19 01:00N 29°45' W 094°04'2 3.1
2018-Feb-19 00:30N 29°46' W 094°03'2 4.1
2018-Feb-19 00:00N 29°47' W 094°01'3 6.3
2018-Feb-18 23:30N 29°49' W 093°58'0 0.1
2018-Feb-18 23:00N 29°49' W 093°58'0 0.0
2018-Feb-18 22:30N 29°49' W 093°58'0 0.0
2018-Feb-18 22:00N 29°49' W 093°58'0 0.0
2018-Feb-18 21:30N 29°49' W 093°58'0 0.0
2018-Feb-18 21:00N 29°49' W 093°58'0 0.0
2018-Feb-18 20:30N 29°49' W 093°58'0 0.0
2018-Feb-18 20:00N 29°49' W 093°58'2 4.9
2018-Feb-18 19:30N 29°51' W 093°56'4 8.7
2018-Feb-18 19:00N 29°55' W 093°53'4 8.0
2018-Feb-18 18:30N 29°58' W 093°51'4 7.3
2018-Feb-18 18:00N 29°60' W 093°47'0 0.1
2018-Feb-18 17:30N 29°60' W 093°47'3 5.5
2018-Feb-18 17:00N 30°01' W 093°45'2 3.9
2018-Feb-18 16:30N 30°03' W 093°44'0 0.0
2018-Feb-18 16:00N 30°03' W 093°44'0 0.0
2018-Feb-18 15:30N 30°03' W 093°44'0 0.0
2018-Feb-18 15:00N 30°03' W 093°44'0 0.0
2018-Feb-18 14:31N 30°03' W 093°44'0 0.0
2018-Feb-18 14:01N 30°03' W 093°44'0 0.0
2018-Feb-18 13:30N 30°03' W 093°44'0 0.0
2018-Feb-18 13:00N 30°03' W 093°44'0 0.0
2018-Feb-18 12:30N 30°03' W 093°44'0 0.0
2018-Feb-18 12:00N 30°03' W 093°44'0 0.0
2018-Feb-18 11:30N 30°03' W 093°44'0 0.0
2018-Feb-18 11:00N 30°03' W 093°44'0 0.0
2018-Feb-18 10:30N 30°03' W 093°44'0 0.0
2018-Feb-18 10:00N 30°03' W 093°44'0 0.0
2018-Feb-18 09:30N 30°03' W 093°44'0 0.0
2018-Feb-18 09:00N 30°03' W 093°44'0 0.0
2018-Feb-18 08:30N 30°03' W 093°44'0 0.0
2018-Feb-18 08:00N 30°03' W 093°44'0 0.0
2018-Feb-18 07:30N 30°03' W 093°44'0 0.0
2018-Feb-18 07:00N 30°03' W 093°44'0 0.0
2018-Feb-18 06:30N 30°03' W 093°44'0 0.0
2018-Feb-18 06:00N 30°03' W 093°44'0 0.0
2018-Feb-18 05:30N 30°03' W 093°44'0 0.0
2018-Feb-18 05:00N 30°03' W 093°44'0 0.0
2018-Feb-18 04:30N 30°03' W 093°44'0 0.0
2018-Feb-18 04:00N 30°03' W 093°44'0 0.0
2018-Feb-18 03:30N 30°03' W 093°44'0 0.0
2018-Feb-18 03:00N 30°03' W 093°44'0 0.0
2018-Feb-18 02:30N 30°03' W 093°44'0 0.0
2018-Feb-18 02:00N 30°03' W 093°44'0 0.0
2018-Feb-18 01:29N 30°03' W 093°44'0 0.0
2018-Feb-18 01:00N 30°03' W 093°44'0 0.0
2018-Feb-18 00:30N 30°03' W 093°44'0 0.0
2018-Feb-18 00:00N 30°03' W 093°44'0 0.0
2018-Feb-17 23:30N 30°03' W 093°44'0 0.0
2018-Feb-17 23:00N 30°03' W 093°44'0 0.0
2018-Feb-17 22:30N 30°03' W 093°44'0 0.0
2018-Feb-17 22:00N 30°03' W 093°44'0 0.0
2018-Feb-17 21:30N 30°03' W 093°44'0 0.0
2018-Feb-17 21:00N 30°03' W 093°44'0 0.0
2018-Feb-17 20:30N 30°03' W 093°44'0 0.0
2018-Feb-17 20:00N 30°03' W 093°44'0 0.1
2018-Feb-17 19:30N 30°03' W 093°44'0 0.3
2018-Feb-17 18:58N 30°03' W 093°44'0 0.0
2018-Feb-17 18:30N 30°03' W 093°44'0 0.0
2018-Feb-17 18:00N 30°03' W 093°44'1 1.3
2018-Feb-17 17:30N 30°04' W 093°45'0 0.1
2018-Feb-17 17:00N 30°04' W 093°45'0 0.0
2018-Feb-17 16:30N 30°04' W 093°45'0 0.0
2018-Feb-17 16:00N 30°04' W 093°45'0 0.0
2018-Feb-17 15:30N 30°04' W 093°45'0 0.0
2018-Feb-17 15:00N 30°04' W 093°45'0 0.0
2018-Feb-17 14:20N 30°04' W 093°45'0 0.0
2018-Feb-17 13:59N 30°04' W 093°45'1 1.1
2018-Feb-17 13:29N 30°04' W 093°44'0 0.3
2018-Feb-17 13:00N 30°03' W 093°44'0 0.0
2018-Feb-17 12:30N 30°03' W 093°44'0 0.0
2018-Feb-17 11:58N 30°03' W 093°44'0 0.0
2018-Feb-17 11:30N 30°03' W 093°44'0 0.0
2018-Feb-17 11:00N 30°03' W 093°44'0 0.0
2018-Feb-17 10:29N 30°03' W 093°44'0 0.0
2018-Feb-17 09:58N 30°03' W 093°44'0 0.0
2018-Feb-17 09:30N 30°03' W 093°44'0 0.0
2018-Feb-17 09:00N 30°03' W 093°44'0 0.0
2018-Feb-17 08:30N 30°03' W 093°44'0 0.0
2018-Feb-17 08:00N 30°03' W 093°44'0 0.0
2018-Feb-17 07:29N 30°03' W 093°44'0 0.0
2018-Feb-17 07:00N 30°03' W 093°44'0 0.0
2018-Feb-17 06:29N 30°03' W 093°44'0 0.0
2018-Feb-17 06:00N 30°03' W 093°44'0 0.0
2018-Feb-17 05:30N 30°03' W 093°44'0 0.0
2018-Feb-17 05:00N 30°03' W 093°44'0 0.0
2018-Feb-17 04:24N 30°03' W 093°44'0 0.0
2018-Feb-17 03:59N 30°03' W 093°44'0 0.0
2018-Feb-17 03:30N 30°03' W 093°44'0 0.0
2018-Feb-17 02:58N 30°03' W 093°44'0 0.0
2018-Feb-17 02:28N 30°03' W 093°44'0 0.0
2018-Feb-17 01:59N 30°03' W 093°44'0 0.0
2018-Feb-17 01:30N 30°03' W 093°44'0 0.0
2018-Feb-17 00:58N 30°03' W 093°44'0 0.0
2018-Feb-17 00:26N 30°03' W 093°44'2 3.7
2018-Feb-17 00:00N 30°02' W 093°44'4 7.2
2018-Feb-16 23:30N 29°59' W 093°47'4 7.1
2018-Feb-16 23:00N 29°58' W 093°51'4 7.8
2018-Feb-16 22:30N 29°55' W 093°53'4 7.8
2018-Feb-16 22:00N 29°52' W 093°56'3 6.9
2018-Feb-16 21:31N 29°49' W 093°59'4 7.1
2018-Feb-16 21:00N 29°47' W 094°02'4 7.2
2018-Feb-16 20:30N 29°44' W 094°05'4 7.4
2018-Feb-16 20:00N 29°42' W 094°08'4 7.1
2018-Feb-16 19:31N 29°41' W 094°12'4 7.1
2018-Feb-16 18:59N 29°39' W 094°16'3 6.9
2018-Feb-16 18:29N 29°37' W 094°19'3 6.9
2018-Feb-16 18:00N 29°36' W 094°23'2 3.9
2018-Feb-16 17:30N 29°35' W 094°25'9 1.2
2018-Feb-16 09:57N 29°30' W 094°34'0 0.1
2018-Feb-16 09:19N 29°30' W 094°34'0 0.0
2018-Feb-16 08:59N 29°30' W 094°34'0 0.0
2018-Feb-16 08:29N 29°30' W 094°34'0 0.0
2018-Feb-16 08:00N 29°30' W 094°34'0 0.0
2018-Feb-16 07:29N 29°30' W 094°34'0 0.0
2018-Feb-16 06:57N 29°30' W 094°34'0 0.0
2018-Feb-16 06:31N 29°30' W 094°34'0 0.0
2018-Feb-16 05:50N 29°30' W 094°34'0 0.0
2018-Feb-16 04:13N 29°30' W 094°34'0 0.0
2018-Feb-16 03:35N 29°30' W 094°34'0 0.0
2018-Feb-16 03:13N 29°30' W 094°34'0 0.0
2018-Feb-16 03:00N 29°30' W 094°34'0 0.0
2018-Feb-16 02:30N 29°30' W 094°34'0 0.0
2018-Feb-16 02:00N 29°30' W 094°34'0 0.0
2018-Feb-16 01:28N 29°30' W 094°34'0 0.0
2018-Feb-16 01:01N 29°30' W 094°34'0 0.0
2018-Feb-16 00:24N 29°30' W 094°34'0 0.0
2018-Feb-15 23:57N 29°30' W 094°34'0 0.0
2018-Feb-15 23:28N 29°30' W 094°34'0 0.0
2018-Feb-15 22:50N 29°30' W 094°34'0 0.0
2018-Feb-15 22:21N 29°30' W 094°34'1 3.4
2018-Feb-15 21:57N 29°29' W 094°35'23 9.8
2018-Feb-15 19:33N 29°36' W 095°01'10 6.6
2018-Feb-15 18:02N 29°30' W 094°52'1 9.2
2018-Feb-15 17:59N 29°31' W 094°53'4 8.5
2018-Feb-15 17:30N 29°34' W 094°55'4 7.6
2018-Feb-15 17:00N 29°37' W 094°58'3 5.4
2018-Feb-15 16:30N 29°36' W 095°01'0 0.0
2018-Feb-15 16:00N 29°36' W 095°01'0 0.0
2018-Feb-15 15:30N 29°36' W 095°01'0 0.0
2018-Feb-15 15:00N 29°36' W 095°01'0 0.0
2018-Feb-15 14:31N 29°36' W 095°01'0 0.0
2018-Feb-15 14:00N 29°36' W 095°01'0 0.0
2018-Feb-15 13:30N 29°36' W 095°01'0 0.0
2018-Feb-15 13:00N 29°36' W 095°01'0 0.0
2018-Feb-15 12:30N 29°36' W 095°01'0 0.0
2018-Feb-15 12:00N 29°36' W 095°01'0 0.0
2018-Feb-15 11:30N 29°36' W 095°01'0 0.0
2018-Feb-15 11:00N 29°36' W 095°01'0 0.0
2018-Feb-15 10:30N 29°36' W 095°01'0 0.0
2018-Feb-15 10:00N 29°36' W 095°01'0 0.0
2018-Feb-15 09:30N 29°36' W 095°01'0 0.0
2018-Feb-15 09:00N 29°36' W 095°01'0 0.0
2018-Feb-15 08:30N 29°36' W 095°01'0 0.0
2018-Feb-15 08:00N 29°36' W 095°01'0 0.0
2018-Feb-15 07:30N 29°36' W 095°01'0 0.0
2018-Feb-15 07:00N 29°36' W 095°01'0 0.0
2018-Feb-15 06:30N 29°36' W 095°01'0 0.0
2018-Feb-15 06:00N 29°36' W 095°01'0 0.0
2018-Feb-15 05:30N 29°36' W 095°01'0 0.0
2018-Feb-15 05:00N 29°36' W 095°01'0 0.0
2018-Feb-15 04:30N 29°36' W 095°01'0 0.0
2018-Feb-15 04:00N 29°36' W 095°01'0 0.0
2018-Feb-15 03:30N 29°36' W 095°01'0 0.0
2018-Feb-15 03:00N 29°36' W 095°01'0 0.0
2018-Feb-15 02:30N 29°36' W 095°01'0 0.0
2018-Feb-15 02:00N 29°36' W 095°01'0 0.0
2018-Feb-15 01:30N 29°36' W 095°01'0 0.0
2018-Feb-15 01:00N 29°36' W 095°01'0 0.0
2018-Feb-15 00:30N 29°36' W 095°01'0 0.0
2018-Feb-15 00:00N 29°36' W 095°01'0 0.0
2018-Feb-14 23:29N 29°36' W 095°01'0 0.0
2018-Feb-14 23:00N 29°36' W 095°01'0 0.0
2018-Feb-14 22:30N 29°36' W 095°01'0 0.0
2018-Feb-14 22:00N 29°36' W 095°01'0 0.0
2018-Feb-14 21:30N 29°36' W 095°01'0 0.0
2018-Feb-14 21:00N 29°36' W 095°01'0 0.0
2018-Feb-14 20:30N 29°36' W 095°01'0 0.0
2018-Feb-14 20:00N 29°36' W 095°01'0 0.0
2018-Feb-14 19:30N 29°36' W 095°01'0 0.0
2018-Feb-14 19:00N 29°36' W 095°01'0 0.0
2018-Feb-14 18:30N 29°36' W 095°01'0 0.0
2018-Feb-14 18:00N 29°36' W 095°01'0 0.0
2018-Feb-14 17:30N 29°36' W 095°01'0 0.0
2018-Feb-14 17:00N 29°36' W 095°01'0 0.0
2018-Feb-14 16:30N 29°36' W 095°01'0 0.0
2018-Feb-14 16:00N 29°36' W 095°01'0 0.0
2018-Feb-14 15:29N 29°36' W 095°01'0 0.0
2018-Feb-14 15:00N 29°36' W 095°01'0 0.0
2018-Feb-14 11:39N 29°36' W 095°01'0 0.0
2018-Feb-14 11:30N 29°36' W 095°01'0 0.0
2018-Feb-14 11:00N 29°36' W 095°01'0 0.0
2018-Feb-14 10:30N 29°36' W 095°01'0 0.0
2018-Feb-14 10:00N 29°36' W 095°01'0 0.0
2018-Feb-14 09:30N 29°36' W 095°01'0 0.0
2018-Feb-14 09:00N 29°36' W 095°01'0 0.0
2018-Feb-14 08:30N 29°36' W 095°01'0 0.0
2018-Feb-14 08:00N 29°36' W 095°01'0 0.0
2018-Feb-14 07:30N 29°36' W 095°01'0 0.0
2018-Feb-14 07:00N 29°36' W 095°01'0 0.0
2018-Feb-14 06:30N 29°36' W 095°01'0 0.0
2018-Feb-14 05:59N 29°36' W 095°01'0 0.0
2018-Feb-14 05:30N 29°36' W 095°01'0 0.0
2018-Feb-14 05:00N 29°36' W 095°01'0 0.0
2018-Feb-14 04:30N 29°36' W 095°01'0 0.0
2018-Feb-14 04:00N 29°36' W 095°01'0 0.0
2018-Feb-14 03:30N 29°36' W 095°01'0 0.0
2018-Feb-14 03:00N 29°36' W 095°01'0 0.0
2018-Feb-14 02:30N 29°36' W 095°01'0 0.0
2018-Feb-14 02:00N 29°36' W 095°01'0 0.0
2018-Feb-14 01:30N 29°36' W 095°01'0 0.0
2018-Feb-14 01:00N 29°36' W 095°01'0 0.0
2018-Feb-14 00:30N 29°36' W 095°01'0 0.0
2018-Feb-14 00:00N 29°36' W 095°01'0 0.0
2018-Feb-13 23:30N 29°36' W 095°01'0 0.0
2018-Feb-13 23:00N 29°36' W 095°01'0 0.0
2018-Feb-13 22:30N 29°36' W 095°01'0 0.6
2018-Feb-13 22:00N 29°37' W 095°01'3 6.3
2018-Feb-13 21:30N 29°37' W 094°58'4 7.7
2018-Feb-13 20:59N 29°34' W 094°55'  
2018-Feb-10 09:46N 29°29' W 094°37'0 0.0
2018-Feb-10 09:29N 29°29' W 094°37'0 0.0
2018-Feb-10 08:55N 29°29' W 094°37'  
Track history (hours):
 
Tides and Currents Weather Stations Pressure Air Temp Water Temp Dewpoint Dewpoint Depression Visibility Wind Speed Wind Dir Waves Ship Positions

Capt Al Devall

Owner: J & J DEVALL MARITIME MARINE OPERATORS, Sulphur, LA. More information available from US FCC via Universal Licensing System and Coast Guard Vessel Documentation Center.

Last reported at 2018-Feb-19 05:30 UTC. Time now 2018-Feb-19 05:58 UTC.
Position N 29°45' W 094°04'.

; draft 3 m.

Type: Towing. MMSI: 366972270.

Date/timePositionNaut miles runAvg speedWind from/ knotsBaromVisibWave heightAir tempDewpointWater temp
2018-Feb-19 05:30N 29°45' W 094°04'0 0.0
2018-Feb-19 05:00N 29°45' W 094°04'0 0.0
2018-Feb-19 04:30N 29°45' W 094°04'0 0.0
2018-Feb-19 04:00N 29°45' W 094°04'0 0.0
2018-Feb-19 03:30N 29°45' W 094°04'0 0.0
2018-Feb-19 03:00N 29°45' W 094°04'0 0.0
2018-Feb-19 02:30N 29°45' W 094°04'0 0.0
2018-Feb-19 02:00N 29°45' W 094°04'0 0.0
2018-Feb-19 01:30N 29°45' W 094°04'0 0.0
2018-Feb-19 01:00N 29°45' W 094°04'2 3.1
2018-Feb-19 00:30N 29°46' W 094°03'2 4.1
2018-Feb-19 00:00N 29°47' W 094°01'3 6.3
2018-Feb-18 23:30N 29°49' W 093°58'0 0.1
2018-Feb-18 23:00N 29°49' W 093°58'0 0.0
2018-Feb-18 22:30N 29°49' W 093°58'0 0.0
2018-Feb-18 22:00N 29°49' W 093°58'0 0.0
2018-Feb-18 21:30N 29°49' W 093°58'0 0.0
2018-Feb-18 21:00N 29°49' W 093°58'0 0.0
2018-Feb-18 20:30N 29°49' W 093°58'0 0.0
2018-Feb-18 20:00N 29°49' W 093°58'2 4.9
2018-Feb-18 19:30N 29°51' W 093°56'4 8.7
2018-Feb-18 19:00N 29°55' W 093°53'4 8.0
2018-Feb-18 18:30N 29°58' W 093°51'4 7.3
2018-Feb-18 18:00N 29°60' W 093°47'0 0.1
2018-Feb-18 17:30N 29°60' W 093°47'3 5.5
2018-Feb-18 17:00N 30°01' W 093°45'2 3.9
2018-Feb-18 16:30N 30°03' W 093°44'0 0.0
2018-Feb-18 16:00N 30°03' W 093°44'0 0.0
2018-Feb-18 15:30N 30°03' W 093°44'0 0.0
2018-Feb-18 15:00N 30°03' W 093°44'0 0.0
2018-Feb-18 14:31N 30°03' W 093°44'0 0.0
2018-Feb-18 14:01N 30°03' W 093°44'0 0.0
2018-Feb-18 13:30N 30°03' W 093°44'0 0.0
2018-Feb-18 13:00N 30°03' W 093°44'0 0.0
2018-Feb-18 12:30N 30°03' W 093°44'0 0.0
2018-Feb-18 12:00N 30°03' W 093°44'0 0.0
2018-Feb-18 11:30N 30°03' W 093°44'0 0.0
2018-Feb-18 11:00N 30°03' W 093°44'0 0.0
2018-Feb-18 10:30N 30°03' W 093°44'0 0.0
2018-Feb-18 10:00N 30°03' W 093°44'0 0.0
2018-Feb-18 09:30N 30°03' W 093°44'0 0.0
2018-Feb-18 09:00N 30°03' W 093°44'0 0.0
2018-Feb-18 08:30N 30°03' W 093°44'0 0.0
2018-Feb-18 08:00N 30°03' W 093°44'0 0.0
2018-Feb-18 07:30N 30°03' W 093°44'0 0.0
2018-Feb-18 07:00N 30°03' W 093°44'0 0.0
2018-Feb-18 06:30N 30°03' W 093°44'0 0.0
2018-Feb-18 06:00N 30°03' W 093°44'0 0.0
2018-Feb-18 05:30N 30°03' W 093°44'0 0.0
2018-Feb-18 05:00N 30°03' W 093°44'0 0.0
2018-Feb-18 04:30N 30°03' W 093°44'0 0.0
2018-Feb-18 04:00N 30°03' W 093°44'0 0.0
2018-Feb-18 03:30N 30°03' W 093°44'0 0.0
2018-Feb-18 03:00N 30°03' W 093°44'0 0.0
2018-Feb-18 02:30N 30°03' W 093°44'0 0.0
2018-Feb-18 02:00N 30°03' W 093°44'0 0.0
2018-Feb-18 01:29N 30°03' W 093°44'0 0.0
2018-Feb-18 01:00N 30°03' W 093°44'0 0.0
2018-Feb-18 00:30N 30°03' W 093°44'0 0.0
2018-Feb-18 00:00N 30°03' W 093°44'0 0.0
2018-Feb-17 23:30N 30°03' W 093°44'0 0.0
2018-Feb-17 23:00N 30°03' W 093°44'0 0.0
2018-Feb-17 22:30N 30°03' W 093°44'0 0.0
2018-Feb-17 22:00N 30°03' W 093°44'0 0.0
2018-Feb-17 21:30N 30°03' W 093°44'0 0.0
2018-Feb-17 21:00N 30°03' W 093°44'0 0.0
2018-Feb-17 20:30N 30°03' W 093°44'0 0.0
2018-Feb-17 20:00N 30°03' W 093°44'0 0.1
2018-Feb-17 19:30N 30°03' W 093°44'0 0.3
2018-Feb-17 18:58N 30°03' W 093°44'0 0.0
2018-Feb-17 18:30N 30°03' W 093°44'0 0.0
2018-Feb-17 18:00N 30°03' W 093°44'1 1.3
2018-Feb-17 17:30N 30°04' W 093°45'0 0.1
2018-Feb-17 17:00N 30°04' W 093°45'0 0.0
2018-Feb-17 16:30N 30°04' W 093°45'0 0.0
2018-Feb-17 16:00N 30°04' W 093°45'0 0.0
2018-Feb-17 15:30N 30°04' W 093°45'0 0.0
2018-Feb-17 15:00N 30°04' W 093°45'0 0.0
2018-Feb-17 14:20N 30°04' W 093°45'0 0.0
2018-Feb-17 13:59N 30°04' W 093°45'1 1.1
2018-Feb-17 13:29N 30°04' W 093°44'0 0.3
2018-Feb-17 13:00N 30°03' W 093°44'0 0.0
2018-Feb-17 12:30N 30°03' W 093°44'0 0.0
2018-Feb-17 11:58N 30°03' W 093°44'0 0.0
2018-Feb-17 11:30N 30°03' W 093°44'0 0.0
2018-Feb-17 11:00N 30°03' W 093°44'0 0.0
2018-Feb-17 10:29N 30°03' W 093°44'0 0.0
2018-Feb-17 09:58N 30°03' W 093°44'0 0.0
2018-Feb-17 09:30N 30°03' W 093°44'0 0.0
2018-Feb-17 09:00N 30°03' W 093°44'0 0.0
2018-Feb-17 08:30N 30°03' W 093°44'0 0.0
2018-Feb-17 08:00N 30°03' W 093°44'0 0.0
2018-Feb-17 07:29N 30°03' W 093°44'0 0.0
2018-Feb-17 07:00N 30°03' W 093°44'0 0.0
2018-Feb-17 06:29N 30°03' W 093°44'0 0.0
2018-Feb-17 06:00N 30°03' W 093°44'0 0.0
2018-Feb-17 05:30N 30°03' W 093°44'0 0.0
2018-Feb-17 05:00N 30°03' W 093°44'0 0.0
2018-Feb-17 04:24N 30°03' W 093°44'0 0.0
2018-Feb-17 03:59N 30°03' W 093°44'0 0.0
2018-Feb-17 03:30N 30°03' W 093°44'0 0.0
2018-Feb-17 02:58N 30°03' W 093°44'0 0.0
2018-Feb-17 02:28N 30°03' W 093°44'0 0.0
2018-Feb-17 01:59N 30°03' W 093°44'0 0.0
2018-Feb-17 01:30N 30°03' W 093°44'0 0.0
2018-Feb-17 00:58N 30°03' W 093°44'0 0.0
2018-Feb-17 00:26N 30°03' W 093°44'2 3.7
2018-Feb-17 00:00N 30°02' W 093°44'4 7.2
2018-Feb-16 23:30N 29°59' W 093°47'4 7.1
2018-Feb-16 23:00N 29°58' W 093°51'4 7.8
2018-Feb-16 22:30N 29°55' W 093°53'4 7.8
2018-Feb-16 22:00N 29°52' W 093°56'3 6.9
2018-Feb-16 21:31N 29°49' W 093°59'4 7.1
2018-Feb-16 21:00N 29°47' W 094°02'4 7.2
2018-Feb-16 20:30N 29°44' W 094°05'4 7.4
2018-Feb-16 20:00N 29°42' W 094°08'4 7.1
2018-Feb-16 19:31N 29°41' W 094°12'4 7.1
2018-Feb-16 18:59N 29°39' W 094°16'3 6.9
2018-Feb-16 18:29N 29°37' W 094°19'3 6.9
2018-Feb-16 18:00N 29°36' W 094°23'2 3.9
2018-Feb-16 17:30N 29°35' W 094°25'9 1.2
2018-Feb-16 09:57N 29°30' W 094°34'0 0.1
2018-Feb-16 09:19N 29°30' W 094°34'0 0.0
2018-Feb-16 08:59N 29°30' W 094°34'0 0.0
2018-Feb-16 08:29N 29°30' W 094°34'0 0.0
2018-Feb-16 08:00N 29°30' W 094°34'0 0.0
2018-Feb-16 07:29N 29°30' W 094°34'0 0.0
2018-Feb-16 06:57N 29°30' W 094°34'0 0.0
2018-Feb-16 06:31N 29°30' W 094°34'0 0.0
2018-Feb-16 05:50N 29°30' W 094°34'0 0.0
2018-Feb-16 04:13N 29°30' W 094°34'0 0.0
2018-Feb-16 03:35N 29°30' W 094°34'0 0.0
2018-Feb-16 03:13N 29°30' W 094°34'0 0.0
2018-Feb-16 03:00N 29°30' W 094°34'0 0.0
2018-Feb-16 02:30N 29°30' W 094°34'0 0.0
2018-Feb-16 02:00N 29°30' W 094°34'0 0.0
2018-Feb-16 01:28N 29°30' W 094°34'0 0.0
2018-Feb-16 01:01N 29°30' W 094°34'0 0.0
2018-Feb-16 00:24N 29°30' W 094°34'0 0.0
2018-Feb-15 23:57N 29°30' W 094°34'0 0.0
2018-Feb-15 23:28N 29°30' W 094°34'0 0.0
2018-Feb-15 22:50N 29°30' W 094°34'0 0.0
2018-Feb-15 22:21N 29°30' W 094°34'1 3.4
2018-Feb-15 21:57N 29°29' W 094°35'23 9.8
2018-Feb-15 19:33N 29°36' W 095°01'10 6.6
2018-Feb-15 18:02N 29°30' W 094°52'1 9.2
2018-Feb-15 17:59N 29°31' W 094°53'4 8.5
2018-Feb-15 17:30N 29°34' W 094°55'4 7.6
2018-Feb-15 17:00N 29°37' W 094°58'3 5.4
2018-Feb-15 16:30N 29°36' W 095°01'0 0.0
2018-Feb-15 16:00N 29°36' W 095°01'0 0.0
2018-Feb-15 15:30N 29°36' W 095°01'0 0.0
2018-Feb-15 15:00N 29°36' W 095°01'0 0.0
2018-Feb-15 14:31N 29°36' W 095°01'0 0.0
2018-Feb-15 14:00N 29°36' W 095°01'0 0.0
2018-Feb-15 13:30N 29°36' W 095°01'0 0.0
2018-Feb-15 13:00N 29°36' W 095°01'0 0.0
2018-Feb-15 12:30N 29°36' W 095°01'0 0.0
2018-Feb-15 12:00N 29°36' W 095°01'0 0.0
2018-Feb-15 11:30N 29°36' W 095°01'0 0.0
2018-Feb-15 11:00N 29°36' W 095°01'0 0.0
2018-Feb-15 10:30N 29°36' W 095°01'0 0.0
2018-Feb-15 10:00N 29°36' W 095°01'0 0.0
2018-Feb-15 09:30N 29°36' W 095°01'0 0.0
2018-Feb-15 09:00N 29°36' W 095°01'0 0.0
2018-Feb-15 08:30N 29°36' W 095°01'0 0.0
2018-Feb-15 08:00N 29°36' W 095°01'0 0.0
2018-Feb-15 07:30N 29°36' W 095°01'0 0.0
2018-Feb-15 07:00N 29°36' W 095°01'0 0.0
2018-Feb-15 06:30N 29°36' W 095°01'0 0.0
2018-Feb-15 06:00N 29°36' W 095°01'0 0.0
2018-Feb-15 05:30N 29°36' W 095°01'0 0.0
2018-Feb-15 05:00N 29°36' W 095°01'0 0.0
2018-Feb-15 04:30N 29°36' W 095°01'0 0.0
2018-Feb-15 04:00N 29°36' W 095°01'0 0.0
2018-Feb-15 03:30N 29°36' W 095°01'0 0.0
2018-Feb-15 03:00N 29°36' W 095°01'0 0.0
2018-Feb-15 02:30N 29°36' W 095°01'0 0.0
2018-Feb-15 02:00N 29°36' W 095°01'0 0.0
2018-Feb-15 01:30N 29°36' W 095°01'0 0.0
2018-Feb-15 01:00N 29°36' W 095°01'0 0.0
2018-Feb-15 00:30N 29°36' W 095°01'0 0.0
2018-Feb-15 00:00N 29°36' W 095°01'0 0.0
2018-Feb-14 23:29N 29°36' W 095°01'0 0.0
2018-Feb-14 23:00N 29°36' W 095°01'0 0.0
2018-Feb-14 22:30N 29°36' W 095°01'0 0.0
2018-Feb-14 22:00N 29°36' W 095°01'0 0.0
2018-Feb-14 21:30N 29°36' W 095°01'0 0.0
2018-Feb-14 21:00N 29°36' W 095°01'0 0.0
2018-Feb-14 20:30N 29°36' W 095°01'0 0.0
2018-Feb-14 20:00N 29°36' W 095°01'0 0.0
2018-Feb-14 19:30N 29°36' W 095°01'0 0.0
2018-Feb-14 19:00N 29°36' W 095°01'0 0.0
2018-Feb-14 18:30N 29°36' W 095°01'0 0.0
2018-Feb-14 18:00N 29°36' W 095°01'0 0.0
2018-Feb-14 17:30N 29°36' W 095°01'0 0.0
2018-Feb-14 17:00N 29°36' W 095°01'0 0.0
2018-Feb-14 16:30N 29°36' W 095°01'0 0.0
2018-Feb-14 16:00N 29°36' W 095°01'0 0.0
2018-Feb-14 15:29N 29°36' W 095°01'0 0.0
2018-Feb-14 15:00N 29°36' W 095°01'0 0.0
2018-Feb-14 11:39N 29°36' W 095°01'0 0.0
2018-Feb-14 11:30N 29°36' W 095°01'0 0.0
2018-Feb-14 11:00N 29°36' W 095°01'0 0.0
2018-Feb-14 10:30N 29°36' W 095°01'0 0.0
2018-Feb-14 10:00N 29°36' W 095°01'0 0.0
2018-Feb-14 09:30N 29°36' W 095°01'0 0.0
2018-Feb-14 09:00N 29°36' W 095°01'0 0.0
2018-Feb-14 08:30N 29°36' W 095°01'0 0.0
2018-Feb-14 08:00N 29°36' W 095°01'0 0.0
2018-Feb-14 07:30N 29°36' W 095°01'0 0.0
2018-Feb-14 07:00N 29°36' W 095°01'0 0.0
2018-Feb-14 06:30N 29°36' W 095°01'0 0.0
2018-Feb-14 05:59N 29°36' W 095°01'0 0.0
2018-Feb-14 05:30N 29°36' W 095°01'0 0.0
2018-Feb-14 05:00N 29°36' W 095°01'0 0.0
2018-Feb-14 04:30N 29°36' W 095°01'0 0.0
2018-Feb-14 04:00N 29°36' W 095°01'0 0.0
2018-Feb-14 03:30N 29°36' W 095°01'0 0.0
2018-Feb-14 03:00N 29°36' W 095°01'0 0.0
2018-Feb-14 02:30N 29°36' W 095°01'0 0.0
2018-Feb-14 02:00N 29°36' W 095°01'0 0.0
2018-Feb-14 01:30N 29°36' W 095°01'0 0.0
2018-Feb-14 01:00N 29°36' W 095°01'0 0.0
2018-Feb-14 00:30N 29°36' W 095°01'0 0.0
2018-Feb-14 00:00N 29°36' W 095°01'0 0.0
2018-Feb-13 23:30N 29°36' W 095°01'0 0.0
2018-Feb-13 23:00N 29°36' W 095°01'0 0.0
2018-Feb-13 22:30N 29°36' W 095°01'0 0.6
2018-Feb-13 22:00N 29°37' W 095°01'3 6.3
2018-Feb-13 21:30N 29°37' W 094°58'4 7.7
2018-Feb-13 20:59N 29°34' W 094°55'  
2018-Feb-10 09:46N 29°29' W 094°37'0 0.0
2018-Feb-10 09:29N 29°29' W 094°37'0 0.0
2018-Feb-10 08:55N 29°29' W 094°37'  

Dump ship's entire track history